Kingsville Naval Air Station
KNQI : now visible

Airfield :











YOU CAN JOIN US ON...

 
LOGIN :

Register | Disclaimer

   EN    FR    IT 

 









Legend :    VFR   Marginal VFR   IFR   Intensive IFR   Very Intensive IFR
Visi :
Ceiling :
>= 8 km
>= 3000ft
5 to 8 km
1000 to 3000 ft
1500m to 5 km
500 to 1000 ft
800 to 1500m
200 to 500 ft
< 800m
< 200 ft
Symbols :   Thunderstorms  Fog  Heavy snow  Heavy precipitations  Wind > 20 kt







- Airport Elevation : 50 ft


KNQI - Kingsville Naval Air Station

CURRENT METAR :
  • 211656Z 14011KT 10SM SCT044 35/22 A2999 RMK AO2 SLP153 T03500222 $

EXPIRED METARs :
  • 211556Z 13011G16KT 10SM SCT032 33/23 A3000 RMK AO2 SLP155 T03330228 $
  • 211456Z 14011KT 10SM SCT022 BKN030 BKN250 32/24 A2999 RMK AO2 SLP153 TCU DSNT SE T03220239 50004 $
  • 211436Z 17008KT 10SM BKN021 BKN028 BKN250 31/24 A3000 RMK AO2 CB DSNT SE T03110244 $

TAF TAF KNQI
Valid from the 21 at 15:00 until the 22 at 15:00 UTC


2115/2215 14012G19KT 9999 VCSH FEW024 SCT030 SCT250 QNH2995INS
TEMPO 2115/2117 15010KT BKN026
FM211800 13012G18KT 9999 VCSH SCT037 SCT250 QNH2990INS
TEMPO 2118/2120 BKN038
FM212100 12015G22KT FEW030 SCT048 BKN250 QNH2987INS
TEMPO 2121/2201 12017G24KT
FM220200 13012KT 9999 FEW025 SCT250 QNH2991INS
FM220500 15010KT 9999 FEW020 FEW250 QNH2990INS
FM221000 VRB05KT 9000 BR FEW018 FEW250 QNH2989INS
TEMPO 2211/2213 6000 BR BKN017
FM221400 14006KT 9999 VCSH SCT020 SCT250 QNH2989INS T37/2120Z T25/2211Z FN00003
No reported NOTAMs for that airfield.



MET'MAP, your aeronautical weather chart ! - Copyright ORBIFLY December 2007 - Disclaimer

ORBIFLY MET'MAP TEAM :

Programming & Development : Alexandra Zaïnal
Concept & Development : Baudouin d'Aumeries
Co-Development & Prog : Marc-Olivier Méhu
Technical & hardware support : Manuel Goepfert

Contact : metmap@orbifly.com




SOURCES & CREDITS :

   NOAA       Earth
Advisory